Time;durP1;ratioP1;P1;durP2;ratioP2;P2;SDS_P1;SDS_P2;PMS_P1;PMS_P2;Temp;Humidity;BMP_temperature;BMP_pressure;BME280_temperature;BME280_humidity;BME280_pressure;Samples;Min_cycle;Max_cycle;Signal;HPM_P1;HPM_P2
2020/12/05 00:01:28;;;;;;;;;;;;;;;25.05;31.95;101064.34;5057353;28;828;-40
2020/12/05 00:03:54;;;;;;;;;;;;;;;24.98;32.06;101067.81;5056632;28;1957;-33
2020/12/05 00:06:19;;;;;;;;;;;;;;;24.98;31.99;101063.28;5057275;28;830;-42
2020/12/05 00:08:45;;;;;;;;;;;;;;;24.95;32.37;101060.94;5057316;28;783;-42
2020/12/05 00:11:10;;;;;;;;;;;;;;;25.01;32.17;101056.75;5056451;28;1018;-36
2020/12/05 00:13:35;;;;;;;;;;;;;;;24.95;32.23;101066.31;5057204;28;764;-42
2020/12/05 00:16:01;;;;;;;;;;;;;;;25.02;32.12;101062.00;5056838;28;867;-42
2020/12/05 00:18:26;;;;;;;;;;;;;;;25.01;32.23;101054.03;5056645;28;1075;-34
2020/12/05 00:20:51;;;;;;;;;;;;;;;25.04;32.24;101062.66;5057118;28;788;-42
2020/12/05 00:23:16;;;;;;;;;;;;;;;25.03;32.07;101068.19;5056453;28;1910;-37
2020/12/05 00:25:42;;;;;;;;;;;;;;;24.99;32.21;101073.03;5056329;28;1018;-43
2020/12/05 00:28:07;;;;;;;;;;;;;;;25.00;32.13;101072.06;5056574;28;815;-41
2020/12/05 00:30:33;;;;;;;;;;;;;;;25.00;32.24;101072.06;5056771;28;768;-39
2020/12/05 00:33:01;;;;;;;;;;;;;;;24.97;32.25;101067.00;5056472;28;780;-34
2020/12/05 00:35:27;;;;;;;;;;;;;;;25.02;32.27;101069.22;5056968;28;788;-39
2020/12/05 00:37:52;;;;;;;;;;;;;;;24.97;32.40;101072.38;5056389;28;788;-35
2020/12/05 00:40:18;;;;;;;;;;;;;;;24.94;32.52;101070.84;5056203;28;943;-42
2020/12/05 00:42:43;;;;;;;;;;;;;;;24.98;32.32;101074.06;5056205;28;1898;-30
2020/12/05 00:45:08;;;;;;;;;;;;;;;24.95;32.33;101077.09;5056307;28;811;-42
2020/12/05 00:47:34;;;;;;;;;;;;;;;24.93;32.38;101081.78;5056110;28;980;-32
2020/12/05 00:49:59;;;;;;;;;;;;;;;25.01;32.27;101076.44;5056940;28;752;-41
2020/12/05 00:52:24;;;;;;;;;;;;;;;24.97;32.38;101068.84;5056112;28;820;-41
2020/12/05 00:54:49;;;;;;;;;;;;;;;25.02;32.36;101072.75;5056066;28;920;-41
2020/12/05 00:57:15;;;;;;;;;;;;;;;24.99;32.27;101064.97;5056660;28;736;-42
2020/12/05 00:59:40;;;;;;;;;;;;;;;24.93;32.45;101076.38;5056021;28;756;-39
2020/12/05 01:02:05;;;;;;;;;;;;;;;24.98;32.32;101068.69;5056559;28;1973;-41
2020/12/05 01:04:31;;;;;;;;;;;;;;;24.94;32.45;101070.03;5056344;28;839;-41
2020/12/05 01:06:56;;;;;;;;;;;;;;;24.90;32.40;101066.81;5056034;28;764;-34
2020/12/05 01:09:21;;;;;;;;;;;;;;;24.95;32.53;101066.31;5056167;28;843;-42
2020/12/05 01:11:47;;;;;;;;;;;;;;;24.96;32.37;101067.16;5056026;28;999;-37
2020/12/05 01:14:12;;;;;;;;;;;;;;;24.91;32.45;101070.31;5056001;28;720;-35
2020/12/05 01:16:37;;;;;;;;;;;;;;;24.93;32.38;101069.16;5055972;28;779;-41
2020/12/05 01:19:02;;;;;;;;;;;;;;;24.92;32.34;101072.03;5056059;28;1084;-41
2020/12/05 01:21:28;;;;;;;;;;;;;;;25.01;32.24;101067.50;5055811;28;766;-42
2020/12/05 01:23:53;;;;;;;;;;;;;;;25.00;32.27;101064.00;5055924;28;1967;-42
2020/12/05 01:26:21;;;;;;;;;;;;;;;25.04;32.24;101064.50;5055908;28;998;-33
2020/12/05 01:28:47;;;;;;;;;;;;;;;25.02;32.31;101069.22;5055915;28;831;-39
2020/12/05 01:31:12;;;;;;;;;;;;;;;25.01;32.27;101073.75;5055914;28;827;-42
2020/12/05 01:33:37;;;;;;;;;;;;;;;25.00;32.27;101074.75;5055676;28;997;-41
2020/12/05 01:36:03;;;;;;;;;;;;;;;24.98;32.37;101070.50;5055883;28;804;-42
2020/12/05 01:38:28;;;;;;;;;;;;;;;24.98;32.40;101075.91;5055784;28;768;-42
2020/12/05 01:40:57;;;;;;;;;;;;;;;25.03;32.17;101066.34;5059830;28;1002;-31
2020/12/05 01:43:22;;;;;;;;;;;;;;;24.91;32.47;101073.84;5059580;28;1964;-42
2020/12/05 01:45:48;;;;;;;;;;;;;;;24.97;32.33;101079.59;5059678;28;851;-43
2020/12/05 01:48:14;;;;;;;;;;;;;;;24.92;32.48;101077.41;5059739;28;725;-41
2020/12/05 01:50:39;;;;;;;;;;;;;;;24.98;32.37;101075.91;5059661;28;895;-42
2020/12/05 01:53:04;;;;;;;;;;;;;;;24.97;32.44;101082.31;5059392;28;831;-34
2020/12/05 01:55:29;;;;;;;;;;;;;;;24.93;32.46;101074.56;5059454;28;970;-42
2020/12/05 01:57:55;;;;;;;;;;;;;;;25.06;32.27;101073.25;5059519;28;807;-35
2020/12/05 02:00:20;;;;;;;;;;;;;;;24.97;32.47;101075.09;5059090;28;854;-42
2020/12/05 02:02:45;;;;;;;;;;;;;;;24.96;32.34;101078.75;5058996;28;1901;-43
2020/12/05 02:05:34;;;;;;;;;;;;;;;24.92;32.52;101072.03;5059405;28;796;-37
2020/12/05 02:08:09;;;;;;;;;;;;;;;25.00;32.38;101073.91;5051094;28;1659;-40
2020/12/05 02:10:36;;;;;;;;;;;;;;;24.99;32.36;101075.75;5059446;28;995;-43
2020/12/05 02:13:12;;;;;;;;;;;;;;;25.01;32.36;101073.75;5041611;28;819;-32
2020/12/05 02:15:38;;;;;;;;;;;;;;;24.78;32.26;101062.66;5041474;28;816;-29
2020/12/05 02:18:03;;;;;;;;;;;;;;;24.75;32.29;101068.34;5040729;28;1137;-32
2020/12/05 02:20:29;;;;;;;;;;;;;;;24.72;32.18;101072.22;5059253;28;744;-40
2020/12/05 02:22:55;;;;;;;;;;;;;;;24.63;31.98;101065.94;5058727;28;1973;-42
2020/12/05 02:25:20;;;;;;;;;;;;;;;24.72;32.19;101066.84;5040715;28;1034;-41
2020/12/05 02:27:45;;;;;;;;;;;;;;;24.88;32.26;101059.84;5059096;28;756;-42
2020/12/05 02:30:10;;;;;;;;;;;;;;;24.98;32.03;101066.00;5040619;28;832;-42
2020/12/05 02:32:36;;;;;;;;;;;;;;;24.92;32.21;101069.34;5059245;28;756;-34
2020/12/05 02:35:01;;;;;;;;;;;;;;;24.94;32.13;101064.63;5058929;28;779;-34
2020/12/05 02:37:27;;;;;;;;;;;;;;;25.00;32.00;101068.53;5058562;28;808;-36
2020/12/05 02:39:53;;;;;;;;;;;;;;;25.00;32.14;101071.22;5064404;28;813;-41
2020/12/05 02:42:18;;;;;;;;;;;;;;;24.95;32.20;101077.09;5040598;28;1906;-40
2020/12/05 02:44:47;;;;;;;;;;;;;;;25.00;32.11;101069.38;5040568;28;787;-34
2020/12/05 02:47:12;;;;;;;;;;;;;;;25.03;32.22;101076.25;5058654;28;811;-33
2020/12/05 02:49:38;;;;;;;;;;;;;;;24.99;32.27;101075.75;5058377;28;791;-39
2020/12/05 02:52:03;;;;;;;;;;;;;;;24.98;32.28;101073.22;5058182;28;808;-42
2020/12/05 02:54:29;;;;;;;;;;;;;;;24.98;32.31;101063.28;5058601;28;764;-30
2020/12/05 02:56:54;;;;;;;;;;;;;;;24.98;32.32;101068.69;5058492;28;952;-33
2020/12/05 02:59:19;;;;;;;;;;;;;;;24.97;32.35;101064.31;5058141;28;823;-42
2020/12/05 03:01:45;;;;;;;;;;;;;;;24.87;32.44;101072.47;5058146;28;791;-33
2020/12/05 03:04:10;;;;;;;;;;;;;;;24.98;32.44;101070.50;5058296;28;1898;-33
2020/12/05 03:06:35;;;;;;;;;;;;;;;24.92;32.47;101072.84;5058015;28;772;-42
2020/12/05 03:09:00;;;;;;;;;;;;;;;24.99;32.36;101073.03;5066390;28;828;-38
2020/12/05 03:11:26;;;;;;;;;;;;;;;24.98;32.39;101075.91;5074856;28;987;-31
2020/12/05 03:13:51;;;;;;;;;;;;;;;24.96;32.35;101086.81;5078127;28;765;-42
2020/12/05 03:16:16;;;;;;;;;;;;;;;24.93;32.36;101089.84;5078257;28;744;-34
2020/12/05 03:18:42;;;;;;;;;;;;;;;24.64;32.55;101078.38;5077863;28;1091;-32
2020/12/05 03:21:07;;;;;;;;;;;;;;;24.81;32.42;101076.63;5077766;28;768;-38
2020/12/05 03:23:32;;;;;;;;;;;;;;;24.85;32.53;101084.38;5077950;28;1918;-31
2020/12/05 03:25:57;;;;;;;;;;;;;;;24.88;32.36;101076.00;5066682;28;1029;-41
2020/12/05 03:28:24;;;;;;;;;;;;;;;24.96;32.22;101080.63;5057765;28;754;-42
2020/12/05 03:30:50;;;;;;;;;;;;;;;24.85;32.44;101090.63;5057822;28;764;-42
2020/12/05 03:33:15;;;;;;;;;;;;;;;24.88;32.34;101095.69;5057592;28;819;-41
2020/12/05 03:35:40;;;;;;;;;;;;;;;24.90;32.40;101095.50;5057585;28;748;-41
2020/12/05 03:38:05;;;;;;;;;;;;;;;24.97;32.27;101093.06;5057813;28;847;-41
2020/12/05 03:40:31;;;;;;;;;;;;;;;24.94;32.39;101094.25;5057351;28;1003;-37
2020/12/05 03:42:56;;;;;;;;;;;;;;;24.97;32.35;101093.91;5057368;28;1898;-41
2020/12/05 03:45:21;;;;;;;;;;;;;;;24.99;32.36;101099.97;5057617;28;744;-40
2020/12/05 03:47:47;;;;;;;;;;;;;;;24.92;32.42;101098.94;5057351;28;862;-33
2020/12/05 03:50:12;;;;;;;;;;;;;;;25.02;32.25;101098.81;5057396;28;859;-41
2020/12/05 03:52:37;;;;;;;;;;;;;;;24.97;32.32;101104.69;5057745;28;818;-41
2020/12/05 03:55:03;;;;;;;;;;;;;;;24.88;32.50;101101.06;5056914;28;1025;-32
2020/12/05 03:57:28;;;;;;;;;;;;;;;24.97;32.43;101104.69;5057572;28;752;-41
2020/12/05 03:59:53;;;;;;;;;;;;;;;24.94;32.42;101115.78;5057356;28;881;-34
2020/12/05 04:02:18;;;;;;;;;;;;;;;24.90;32.45;101115.25;5056410;28;1906;-42
2020/12/05 04:04:44;;;;;;;;;;;;;;;24.90;32.45;101117.03;5057121;28;875;-41
2020/12/05 04:07:09;;;;;;;;;;;;;;;24.94;32.40;101116.59;5057061;28;767;-36
2020/12/05 04:09:34;;;;;;;;;;;;;;;24.92;32.63;101121.28;5057152;28;816;-41
2020/12/05 04:12:00;;;;;;;;;;;;;;;24.93;32.48;101123.00;5056988;28;952;-33
2020/12/05 04:14:25;;;;;;;;;;;;;;;24.99;32.32;101118.81;5056618;28;836;-38
2020/12/05 04:16:50;;;;;;;;;;;;;;;24.96;32.44;101118.31;5057551;28;779;-42
2020/12/05 04:19:16;;;;;;;;;;;;;;;24.76;32.75;101119.31;5056837;28;1096;-42
2020/12/05 04:21:41;;;;;;;;;;;;;;;24.48;33.30;101119.44;5056543;28;764;-41
2020/12/05 04:24:06;;;;;;;;;;;;;;;24.43;33.32;101122.63;5056925;28;1917;-41
2020/12/05 04:26:32;;;;;;;;;;;;;;;24.38;33.51;101121.38;5056588;28;970;-35
2020/12/05 04:28:57;;;;;;;;;;;;;;;24.31;33.63;101123.84;5056427;28;860;-39
2020/12/05 04:31:22;;;;;;;;;;;;;;;24.20;33.58;101123.09;5056788;28;784;-41
2020/12/05 04:33:48;;;;;;;;;;;;;;;24.26;33.65;101120.75;5056723;28;831;-42
2020/12/05 04:36:13;;;;;;;;;;;;;;;24.00;33.96;101124.22;5065393;28;784;-40
2020/12/05 04:38:38;;;;;;;;;;;;;;;24.07;34.01;101126.13;5076775;28;803;-41
2020/12/05 04:41:03;;;;;;;;;;;;;;;24.14;33.88;101139.78;5064528;28;1002;-40
2020/12/05 04:43:30;;;;;;;;;;;;;;;24.09;33.88;101132.19;5056152;28;1913;-35
2020/12/05 04:45:55;;;;;;;;;;;;;;;24.13;33.78;101135.44;5039166;28;785;-41
2020/12/05 04:48:21;;;;;;;;;;;;;;;24.12;33.74;101139.13;5056198;28;1063;-41
2020/12/05 04:50:46;;;;;;;;;;;;;;;24.02;33.95;101136.50;5037871;28;836;-42
2020/12/05 04:53:13;;;;;;;;;;;;;;;23.77;34.31;101132.72;5056548;28;735;-39
2020/12/05 04:55:41;;;;;;;;;;;;;;;23.38;34.99;101134.56;5056128;28;908;-42
2020/12/05 04:58:14;;;;;;;;;;;;;;;23.28;35.27;101139.13;5068783;28;845;-38
2020/12/05 05:00:39;;;;;;;;;;;;;;;23.10;35.72;101137.22;5075750;28;1003;-36
2020/12/05 05:03:04;;;;;;;;;;;;;;;23.15;35.83;101142.16;5058278;28;1973;-38
2020/12/05 05:05:29;;;;;;;;;;;;;;;23.06;35.83;101150.09;5057770;28;831;-36
2020/12/05 05:07:55;;;;;;;;;;;;;;;23.20;35.58;101153.28;5076373;28;748;-42
2020/12/05 05:10:24;;;;;;;;;;;;;;;23.31;35.48;101155.78;5069120;28;958;-43
2020/12/05 05:12:50;;;;;;;;;;;;;;;23.47;35.22;101159.72;5056732;28;828;-36
2020/12/05 05:15:18;;;;;;;;;;;;;;;23.55;34.98;101158.97;5060512;28;840;-42
2020/12/05 05:17:47;;;;;;;;;;;;;;;23.79;34.64;101160.28;5060056;28;1066;-38
2020/12/05 05:20:18;;;;;;;;;;;;;;;24.18;33.66;101159.19;5059855;28;761;-33
2020/12/05 05:22:43;;;;;;;;;;;;;;;24.21;33.55;101162.41;5060119;28;1981;-29
2020/12/05 05:25:09;;;;;;;;;;;;;;;24.09;33.87;101163.59;5042253;28;1031;-37
2020/12/05 05:27:34;;;;;;;;;;;;;;;24.23;33.59;101167.63;5069131;28;871;-31
2020/12/05 05:30:07;;;;;;;;;;;;;;;24.21;33.62;101170.47;5061904;28;1012;-30
2020/12/05 05:32:41;;;;;;;;;;;;;;;24.31;33.50;101170.41;5079630;28;814;-33
2020/12/05 05:35:10;;;;;;;;;;;;;;;25.11;32.33;101167.84;5079885;28;760;-33
2020/12/05 05:37:35;;;;;;;;;;;;;;;25.00;32.02;101170.78;5079871;28;859;-32
2020/12/05 05:40:01;;;;;;;;;;;;;;;24.60;32.83;101173.84;5076970;28;951;-32
2020/12/05 05:42:26;;;;;;;;;;;;;;;25.16;32.09;101170.03;5059783;28;1906;-28
2020/12/05 05:44:52;;;;;;;;;;;;;;;27.42;28.27;101174.75;5059959;28;776;-32
2020/12/05 05:47:18;;;;;;;;;;;;;;;28.19;26.94;101185.00;5059915;28;875;-33
2020/12/05 05:49:43;;;;;;;;;;;;;;;28.54;26.83;101193.56;5041875;28;1319;-34
2020/12/05 05:52:08;;;;;;;;;;;;;;;28.89;26.28;101193.09;5059576;28;823;-34
2020/12/05 05:54:37;;;;;;;;;;;;;;;29.01;25.58;101196.19;5042212;28;987;-34
2020/12/05 05:57:02;;;;;;;;;;;;;;;29.32;25.15;101200.63;5059274;28;998;-34
2020/12/05 05:59:31;;;;;;;;;;;;;;;29.33;25.28;101206.84;5059409;28;879;-33
2020/12/05 06:01:57;;;;;;;;;;;;;;;29.37;25.66;101204.63;5059628;28;744;-34
2020/12/05 06:04:25;;;;;;;;;;;;;;;29.54;25.06;101211.53;5059213;28;1964;-33
2020/12/05 06:06:51;;;;;;;;;;;;;;;29.70;24.75;101209.66;5059392;28;843;-33
2020/12/05 06:09:18;;;;;;;;;;;;;;;29.91;24.55;101217.00;5059195;28;840;-34
2020/12/05 06:11:43;;;;;;;;;;;;;;;29.95;24.50;101212.03;5041239;28;944;-31
2020/12/05 06:14:08;;;;;;;;;;;;;;;30.08;24.37;101213.22;5041293;28;1545;-29
2020/12/05 06:16:33;;;;;;;;;;;;;;;30.07;24.31;101209.66;5041746;28;764;-32
2020/12/05 06:18:59;;;;;;;;;;;;;;;30.01;24.61;101205.03;5037694;28;1251;-34
2020/12/05 06:21:28;;;;;;;;;;;;;;;27.94;27.32;101204.09;5038382;28;891;-34
2020/12/05 06:23:54;;;;;;;;;;;;;;;27.28;28.66;101208.72;5037824;28;1980;-30
2020/12/05 06:26:27;;;;;;;;;;;;;;;26.81;29.34;101202.19;5036827;28;1010;-33
2020/12/05 06:28:52;;;;;;;;;;;;;;;26.63;29.94;101204.06;5037862;28;800;-34
2020/12/05 06:31:17;;;;;;;;;;;;;;;26.62;30.20;101198.81;5038084;28;772;-37
2020/12/05 06:33:43;;;;;;;;;;;;;;;27.32;29.36;101204.66;5038794;28;784;-35
2020/12/05 06:36:27;;;;;;;;;;;;;;;27.69;28.49;101206.91;5039046;28;819;-36
2020/12/05 06:39:14;;;;;;;;;;;;;;;27.76;28.54;101207.88;5038820;28;734;-33
2020/12/05 06:41:40;;;;;;;;;;;;;;;27.74;28.81;101212.66;5038422;28;952;-35
2020/12/05 06:44:09;;;;;;;;;;;;;;;27.72;29.02;101211.97;5038855;28;1906;-34
2020/12/05 06:46:54;;;;;;;;;;;;;;;27.70;28.81;101204.03;5037775;28;818;-34
2020/12/05 06:49:38;;;;;;;;;;;;;;;27.88;28.77;101202.94;5038645;28;803;-36
2020/12/05 06:52:21;;;;;;;;;;;;;;;27.57;29.47;101209.97;5039053;28;799;-34
2020/12/05 06:54:49;;;;;;;;;;;;;;;26.84;29.56;101204.56;5038104;28;970;-35
2020/12/05 06:57:15;;;;;;;;;;;;;;;27.18;29.41;101203.50;5038921;28;768;-37
2020/12/05 06:59:40;;;;;;;;;;;;;;;26.73;29.87;101205.72;5038644;28;828;-38
2020/12/05 07:02:25;;;;;;;;;;;;;;;26.38;30.51;101212.13;5038329;28;1898;-34
2020/12/05 07:04:51;;;;;;;;;;;;;;;26.81;30.01;101213.00;5037893;28;1814;-39
2020/12/05 07:07:29;;;;;;;;;;;;;;;26.79;30.11;101205.06;5037033;28;860;-35
2020/12/05 07:09:54;;;;;;;;;;;;;;;26.92;30.07;101214.50;5038216;28;951;-33
2020/12/05 07:12:19;;;;;;;;;;;;;;;26.98;29.97;101203.84;5038111;28;820;-34
2020/12/05 07:14:45;;;;;;;;;;;;;;;26.70;30.28;101209.63;5038287;28;807;-38
2020/12/05 07:17:19;;;;;;;;;;;;;;;27.07;29.90;101211.97;5039325;28;1110;-38
2020/12/05 07:19:44;;;;;;;;;;;;;;;27.12;29.67;101212.31;5058158;28;772;-35
2020/12/05 07:22:09;;;;;;;;;;;;;;;26.64;30.38;101208.41;5057865;28;1979;-36
2020/12/05 07:24:35;;;;;;;;;;;;;;;26.59;30.60;101209.97;5057877;28;752;-34
2020/12/05 07:27:00;;;;;;;;;;;;;;;26.10;31.13;101216.94;5057684;28;1023;-39
2020/12/05 07:29:25;;;;;;;;;;;;;;;26.23;31.50;101208.34;5057783;28;752;-32
2020/12/05 07:31:51;;;;;;;;;;;;;;;26.52;31.13;101207.94;5057834;28;874;-33
2020/12/05 07:34:19;;;;;;;;;;;;;;;26.21;31.47;101215.78;5057940;28;858;-38
2020/12/05 07:36:44;;;;;;;;;;;;;;;26.28;31.61;101212.25;5056612;28;736;-35
2020/12/05 07:39:10;;;;;;;;;;;;;;;26.36;31.46;101222.22;5057937;28;768;-40
2020/12/05 07:41:35;;;;;;;;;;;;;;;26.26;31.38;101218.81;5057410;28;999;-39
2020/12/05 07:44:00;;;;;;;;;;;;;;;26.53;31.00;101222.25;5040002;28;1902;-35
2020/12/05 07:46:26;;;;;;;;;;;;;;;27.04;30.46;101225.81;5057958;28;807;-35
2020/12/05 07:48:51;;;;;;;;;;;;;;;26.65;30.88;101222.78;5039193;28;1415;-39
2020/12/05 07:51:17;;;;;;;;;;;;;;;26.51;30.87;101230.50;5057308;28;752;-39
2020/12/05 07:53:42;;;;;;;;;;;;;;;26.85;30.70;101233.22;5057850;28;763;-39
2020/12/05 07:56:12;;;;;;;;;;;;;;;26.88;30.51;101231.03;5056639;28;966;-33
2020/12/05 07:58:45;;;;;;;;;;;;;;;26.73;30.69;101228.16;5057465;28;794;-34
2020/12/05 08:01:11;;;;;;;;;;;;;;;27.22;30.34;101234.56;5057053;28;816;-37
2020/12/05 08:03:42;;;;;;;;;;;;;;;26.91;30.56;101229.84;5056899;28;1914;-33
2020/12/05 08:06:26;;;;;;;;;;;;;;;26.68;30.80;101237.75;5039588;28;803;-35
2020/12/05 08:08:52;;;;;;;;;;;;;;;26.90;30.44;101239.81;5057056;28;863;-35
2020/12/05 08:11:18;;;;;;;;;;;;;;;26.73;30.87;101236.25;5038935;28;1006;-32
2020/12/05 08:13:47;;;;;;;;;;;;;;;26.74;30.82;101242.50;5057384;28;756;-34
2020/12/05 08:16:12;;;;;;;;;;;;;;;26.99;30.23;101253.31;5057018;28;776;-35
2020/12/05 08:18:37;;;;;;;;;;;;;;;26.76;30.75;101249.41;5038829;28;1172;-32
2020/12/05 08:21:04;;;;;;;;;;;;;;;26.75;30.56;101252.28;5039246;28;808;-37
2020/12/05 08:23:33;;;;;;;;;;;;;;;27.00;30.14;101257.69;5056903;28;1983;-32
2020/12/05 08:25:59;;;;;;;;;;;;;;;26.88;30.52;101260.72;5056367;28;1089;-33
2020/12/05 08:28:24;;;;;;;;;;;;;;;26.93;30.21;101260.22;5057197;28;787;-38
2020/12/05 08:30:50;;;;;;;;;;;;;;;27.13;29.88;101254.47;5056691;28;787;-37
2020/12/05 08:33:15;;;;;;;;;;;;;;;26.78;30.60;101257.34;5038795;28;1026;-39
2020/12/05 08:35:41;;;;;;;;;;;;;;;26.77;30.68;101253.81;5039154;28;792;-39
2020/12/05 08:38:06;;;;;;;;;;;;;;;26.99;29.99;101253.31;5056782;28;922;-38
2020/12/05 08:40:32;;;;;;;;;;;;;;;26.73;30.87;101246.19;5038616;28;1000;-34
2020/12/05 08:42:57;;;;;;;;;;;;;;;26.84;30.31;101255.84;5057106;28;1902;-33
2020/12/05 08:45:22;;;;;;;;;;;;;;;26.96;30.26;101257.16;5038797;28;817;-34
2020/12/05 08:47:48;;;;;;;;;;;;;;;26.88;30.40;101246.38;5055590;28;785;-33
2020/12/05 08:50:27;;;;;;;;;;;;;;;26.97;30.60;101249.94;5056518;28;847;-39
2020/12/05 08:52:53;;;;;;;;;;;;;;;27.14;29.88;101248.09;5056046;28;796;-39
2020/12/05 08:55:21;;;;;;;;;;;;;;;26.69;31.02;101242.16;5055918;28;924;-36
2020/12/05 08:57:53;;;;;;;;;;;;;;;26.91;30.27;101248.72;5056375;28;847;-36
2020/12/05 09:00:19;;;;;;;;;;;;;;;27.09;29.75;101251.28;5056244;28;791;-33
2020/12/05 09:02:45;;;;;;;;;;;;;;;26.90;30.62;101258.72;5055915;28;1978;-39
2020/12/05 09:05:10;;;;;;;;;;;;;;;27.00;30.43;101250.44;5075233;28;936;-37
2020/12/05 09:07:35;;;;;;;;;;;;;;;27.19;29.86;101250.28;5076307;28;874;-32
2020/12/05 09:10:00;;;;;;;;;;;;;;;26.83;30.63;101248.72;5072989;28;978;-32
2020/12/05 09:12:28;;;;;;;;;;;;;;;26.90;30.21;101249.75;5038407;28;1228;-36
2020/12/05 09:14:57;;;;;;;;;;;;;;;27.02;29.93;101245.75;5038618;28;1068;-31
2020/12/05 09:17:27;;;;;;;;;;;;;;;27.07;30.16;101242.53;5055734;28;992;-38
2020/12/05 09:19:58;;;;;;;;;;;;;;;27.13;30.82;101244.53;5056301;28;800;-35
2020/12/05 09:22:46;;;;;;;;;;;;;;;27.47;30.21;101244.47;5056019;28;1977;-33
2020/12/05 09:25:12;;;;;;;;;;;;;;;27.21;30.56;101243.66;5047540;28;1618;-35
2020/12/05 09:27:40;;;;;;;;;;;;;;;27.41;30.54;101235.19;5065646;28;868;-34
2020/12/05 09:30:06;;;;;;;;;;;;;;;27.58;30.39;101251.34;5075976;28;748;-36
2020/12/05 09:32:38;;;;;;;;;;;;;;;27.39;30.92;101243.47;5075950;28;946;-33
2020/12/05 09:35:04;;;;;;;;;;;;;;;27.46;30.60;101248.19;5076057;28;839;-33
2020/12/05 09:37:29;;;;;;;;;;;;;;;27.77;30.59;101239.31;5075953;28;791;-35
2020/12/05 09:39:55;;;;;;;;;;;;;;;27.46;31.26;101242.78;5073514;28;951;-34
2020/12/05 09:42:21;;;;;;;;;;;;;;;27.24;31.96;101239.81;5055780;28;1898;-34
2020/12/05 09:44:46;;;;;;;;;;;;;;;27.83;31.38;101240.47;5056167;28;859;-35
2020/12/05 09:47:11;;;;;;;;;;;;;;;27.63;31.78;101247.09;5055836;28;792;-33
2020/12/05 09:49:36;;;;;;;;;;;;;;;27.26;32.38;101240.44;5056061;28;779;-32
2020/12/05 09:52:02;;;;;;;;;;;;;;;27.57;31.75;101241.56;5055866;28;879;-34
2020/12/05 09:54:27;;;;;;;;;;;;;;;27.52;31.28;101242.09;5055628;28;767;-34
2020/12/05 09:56:52;;;;;;;;;;;;;;;26.69;30.74;101245.72;5055415;28;939;-37
2020/12/05 09:59:18;;;;;;;;;;;;;;;26.86;31.71;101246.53;5058927;28;821;-33
2020/12/05 10:01:43;;;;;;;;;;;;;;;27.59;30.41;101239.53;5078930;28;847;-34
2020/12/05 10:04:08;;;;;;;;;;;;;;;27.57;30.47;101239.72;5079357;28;1905;-36
2020/12/05 10:06:33;;;;;;;;;;;;;;;27.42;30.88;101246.84;5079490;28;803;-35
2020/12/05 10:08:59;;;;;;;;;;;;;;;27.73;30.34;101241.53;5079274;28;811;-34
2020/12/05 10:11:24;;;;;;;;;;;;;;;27.94;29.88;101244.66;5064473;28;1033;-35
2020/12/05 10:13:49;;;;;;;;;;;;;;;27.56;30.74;101232.59;5059367;28;807;-35
2020/12/05 10:16:14;;;;;;;;;;;;;;;27.48;30.80;101232.63;5059014;28;522;-35
2020/12/05 10:18:40;;;;;;;;;;;;;;;28.02;30.42;101235.66;5058874;28;1100;-35
2020/12/05 10:21:05;;;;;;;;;;;;;;;27.76;30.64;101237.63;5059203;28;779;-34
2020/12/05 10:23:30;;;;;;;;;;;;;;;27.50;31.16;101236.00;5059234;28;1973;-33
2020/12/05 10:25:56;;;;;;;;;;;;;;;27.82;30.83;101233.38;5058806;28;971;-32
2020/12/05 10:28:21;;;;;;;;;;;;;;;28.05;30.37;101240.69;5059171;28;816;-34
2020/12/05 10:30:46;;;;;;;;;;;;;;;27.67;30.83;101230.53;5040142;28;946;-31
2020/12/05 10:33:12;;;;;;;;;;;;;;;27.74;30.99;101237.78;5058851;28;749;-34
2020/12/05 10:35:37;;;;;;;;;;;;;;;28.14;30.55;101233.38;5059039;28;776;-33
2020/12/05 10:38:02;;;;;;;;;;;;;;;27.48;30.44;101236.19;5058436;28;1167;-35
2020/12/05 10:40:27;;;;;;;;;;;;;;;27.00;31.37;101226.13;5058441;28;1010;-36
2020/12/05 10:42:53;;;;;;;;;;;;;;;27.53;30.70;101230.25;5058789;28;1894;-35
2020/12/05 10:45:18;;;;;;;;;;;;;;;27.86;29.30;101232.84;5058853;28;771;-35
2020/12/05 10:47:43;;;;;;;;;;;;;;;27.28;30.39;101233.03;5058685;28;823;-35
2020/12/05 10:50:09;;;;;;;;;;;;;;;27.41;29.97;101231.66;5058703;28;741;-34
2020/12/05 10:52:34;;;;;;;;;;;;;;;27.90;29.24;101238.75;5058277;28;760;-38
2020/12/05 10:54:59;;;;;;;;;;;;;;;27.47;30.37;101225.56;5058446;28;928;-34
2020/12/05 10:57:24;;;;;;;;;;;;;;;27.18;30.66;101225.09;5058622;28;808;-32
2020/12/05 10:59:52;;;;;;;;;;;;;;;27.74;30.08;101237.78;5058483;28;804;-36
2020/12/05 11:02:17;;;;;;;;;;;;;;;27.76;29.42;101226.81;5058723;28;1894;-33
2020/12/05 11:04:42;;;;;;;;;;;;;;;27.24;30.59;101229.81;5058356;28;799;-34
2020/12/05 11:07:08;;;;;;;;;;;;;;;27.47;30.01;101229.09;5058087;28;800;-35
2020/12/05 11:09:33;;;;;;;;;;;;;;;27.87;29.20;101231.84;5058206;28;693;-35
2020/12/05 11:11:58;;;;;;;;;;;;;;;27.41;30.04;101228.94;5057788;28;936;-32
2020/12/05 11:14:24;;;;;;;;;;;;;;;27.25;30.57;101227.97;5058002;28;732;-39
2020/12/05 11:16:49;;;;;;;;;;;;;;;27.77;29.20;101224.94;5058170;28;756;-33
2020/12/05 11:19:14;;;;;;;;;;;;;;;27.46;30.16;101226.56;5058008;28;1572;-35
2020/12/05 11:21:42;;;;;;;;;;;;;;;27.31;30.04;101227.28;5057852;28;804;-35
2020/12/05 11:24:07;;;;;;;;;;;;;;;27.77;29.97;101216.84;5057778;28;1977;-37
2020/12/05 11:26:34;;;;;;;;;;;;;;;27.67;29.80;101222.44;5057291;28;955;-34
2020/12/05 11:28:59;;;;;;;;;;;;;;;27.12;30.50;101226.66;5057403;28;775;-35
2020/12/05 11:31:25;;;;;;;;;;;;;;;27.48;30.20;101221.81;5057925;28;798;-35
2020/12/05 11:33:50;;;;;;;;;;;;;;;27.74;29.54;101215.34;5057841;28;760;-34
2020/12/05 11:36:15;;;;;;;;;;;;;;;27.24;30.33;101213.63;5057693;28;763;-34
2020/12/05 11:38:40;;;;;;;;;;;;;;;27.42;29.68;101211.72;5057783;28;755;-34
2020/12/05 11:41:06;;;;;;;;;;;;;;;27.80;29.44;101205.69;5057531;28;947;-34
2020/12/05 11:43:31;;;;;;;;;;;;;;;27.54;30.02;101215.75;5057500;28;1905;-35
2020/12/05 11:45:56;;;;;;;;;;;;;;;27.26;30.68;101214.28;5057777;28;772;-35
2020/12/05 11:48:22;;;;;;;;;;;;;;;27.61;30.47;101215.88;5057216;28;914;-35
2020/12/05 11:50:47;;;;;;;;;;;;;;;27.79;29.45;101220.22;5064694;28;1244;-35
2020/12/05 11:53:12;;;;;;;;;;;;;;;27.29;30.64;101223.06;5077132;28;1088;-34
2020/12/05 11:55:38;;;;;;;;;;;;;;;27.42;30.00;101219.81;5069135;28;919;-35
2020/12/05 11:58:03;;;;;;;;;;;;;;;27.86;29.15;101224.72;5057394;28;795;-35
2020/12/05 12:00:28;;;;;;;;;;;;;;;27.35;30.55;101219.66;5057170;28;840;-38
2020/12/05 12:02:54;;;;;;;;;;;;;;;27.16;30.52;101224.44;5057008;28;1902;-35
2020/12/05 12:05:19;;;;;;;;;;;;;;;27.52;30.44;101220.47;5057319;28;760;-34
2020/12/05 12:07:45;;;;;;;;;;;;;;;27.45;30.02;101225.72;5057183;28;736;-35
2020/12/05 12:10:10;;;;;;;;;;;;;;;27.44;29.98;101226.75;5056566;28;963;-33
2020/12/05 12:12:35;;;;;;;;;;;;;;;27.57;30.15;101222.66;5057078;28;749;-33
2020/12/05 12:15:01;;;;;;;;;;;;;;;27.85;29.88;101231.16;5056894;28;851;-32
2020/12/05 12:17:26;;;;;;;;;;;;;;;27.82;30.42;101228.81;5057209;28;1296;-35
2020/12/05 12:19:51;;;;;;;;;;;;;;;27.71;31.00;101229.22;5057173;28;733;-35
2020/12/05 12:22:16;;;;;;;;;;;;;;;28.20;30.42;101227.25;5056553;28;1918;-34
2020/12/05 12:24:42;;;;;;;;;;;;;;;27.91;31.24;101229.59;5056693;28;1018;-34
2020/12/05 12:27:07;;;;;;;;;;;;;;;27.60;31.94;101231.25;5056545;28;570;-36
2020/12/05 12:29:32;;;;;;;;;;;;;;;27.91;31.41;101239.59;5057041;28;764;-37
2020/12/05 12:31:58;;;;;;;;;;;;;;;28.20;30.42;101229.97;5056700;28;843;-35
2020/12/05 12:34:23;;;;;;;;;;;;;;;27.86;31.67;101238.25;5056649;28;772;-35
2020/12/05 12:36:49;;;;;;;;;;;;;;;27.76;31.71;101243.03;5056507;28;764;-36
2020/12/05 12:39:15;;;;;;;;;;;;;;;28.12;31.74;101238.97;5056568;28;792;-35
2020/12/05 12:41:40;;;;;;;;;;;;;;;28.10;31.85;101238.31;5056625;28;995;-35
2020/12/05 12:44:05;;;;;;;;;;;;;;;27.94;31.79;101242.81;5056379;28;1905;-32
2020/12/05 12:46:32;;;;;;;;;;;;;;;27.91;32.21;101248.53;5056602;28;812;-34
2020/12/05 12:48:57;;;;;;;;;;;;;;;28.27;32.22;101247.16;5056308;28;1562;-35
2020/12/05 12:51:23;;;;;;;;;;;;;;;27.97;32.57;101241.59;5056389;28;779;-33